sensor_id;sensor_type;location;lat;lon;timestamp;pressure;altitude;pressure_sealevel;temperature;humidity
80184;BME280;69682;52.138;5.440;2023-08-24T00:01:35;101928.72;;;17.61;75.52
80184;BME280;69682;52.138;5.440;2023-08-24T00:04:02;101929.34;;;17.65;75.40
80184;BME280;69682;52.138;5.440;2023-08-24T00:06:29;101922.09;;;17.65;75.47
80184;BME280;69682;52.138;5.440;2023-08-24T00:08:56;101924.72;;;17.56;75.42
80184;BME280;69682;52.138;5.440;2023-08-24T00:11:23;101926.56;;;17.55;75.60
80184;BME280;69682;52.138;5.440;2023-08-24T00:13:49;101914.56;;;17.59;75.80
80184;BME280;69682;52.138;5.440;2023-08-24T00:16:18;101912.44;;;17.63;75.39
80184;BME280;69682;52.138;5.440;2023-08-24T00:18:46;101905.78;;;17.67;75.05
80184;BME280;69682;52.138;5.440;2023-08-24T00:21:14;101909.19;;;17.69;74.99
80184;BME280;69682;52.138;5.440;2023-08-24T00:23:43;101917.66;;;17.64;75.07
80184;BME280;69682;52.138;5.440;2023-08-24T00:26:10;101919.03;;;17.49;75.63
80184;BME280;69682;52.138;5.440;2023-08-24T00:28:37;101908.97;;;17.41;76.21
80184;BME280;69682;52.138;5.440;2023-08-24T00:31:04;101910.38;;;17.45;76.04
80184;BME280;69682;52.138;5.440;2023-08-24T00:33:30;101910.69;;;17.52;76.02
80184;BME280;69682;52.138;5.440;2023-08-24T00:36:01;101905.28;;;17.42;76.12
80184;BME280;69682;52.138;5.440;2023-08-24T00:38:28;101902.97;;;17.38;76.42
80184;BME280;69682;52.138;5.440;2023-08-24T00:40:56;101901.72;;;17.42;76.36
80184;BME280;69682;52.138;5.440;2023-08-24T00:43:22;101887.72;;;17.48;76.08
80184;BME280;69682;52.138;5.440;2023-08-24T00:45:51;101881.69;;;17.35;76.63
80184;BME280;69682;52.138;5.440;2023-08-24T00:48:19;101882.97;;;17.31;76.95
80184;BME280;69682;52.138;5.440;2023-08-24T00:50:46;101879.25;;;17.32;76.88
80184;BME280;69682;52.138;5.440;2023-08-24T00:53:13;101870.91;;;17.35;76.83
80184;BME280;69682;52.138;5.440;2023-08-24T00:55:39;101870.63;;;17.38;76.82
80184;BME280;69682;52.138;5.440;2023-08-24T00:58:07;101873.22;;;17.39;76.47
80184;BME280;69682;52.138;5.440;2023-08-24T01:00:34;101876.63;;;17.41;76.52
80184;BME280;69682;52.138;5.440;2023-08-24T01:03:01;101877.59;;;17.40;76.91
80184;BME280;69682;52.138;5.440;2023-08-24T01:05:28;101886.09;;;17.36;76.52
80184;BME280;69682;52.138;5.440;2023-08-24T01:07:55;101889.56;;;17.17;76.88
80184;BME280;69682;52.138;5.440;2023-08-24T01:10:22;101884.88;;;17.19;77.39
80184;BME280;69682;52.138;5.440;2023-08-24T01:13:10;101883.22;;;17.28;76.68
80184;BME280;69682;52.138;5.440;2023-08-24T01:15:53;101891.28;;;17.18;76.62
80184;BME280;69682;52.138;5.440;2023-08-24T01:18:23;101892.47;;;17.04;77.31
80184;BME280;69682;52.138;5.440;2023-08-24T01:20:53;101895.63;;;17.09;77.35
80184;BME280;69682;52.138;5.440;2023-08-24T01:26:13;101889.00;;;17.23;77.39
80184;BME280;69682;52.138;5.440;2023-08-24T01:28:43;101876.53;;;17.22;76.67
80184;BME280;69682;52.138;5.440;2023-08-24T01:31:10;101875.78;;;17.10;76.75
80184;BME280;69682;52.138;5.440;2023-08-24T01:33:39;101867.50;;;17.02;77.51
80184;BME280;69682;52.138;5.440;2023-08-24T01:36:06;101873.94;;;17.11;77.19
80184;BME280;69682;52.138;5.440;2023-08-24T01:38:32;101879.59;;;17.08;76.99
80184;BME280;69682;52.138;5.440;2023-08-24T01:43:39;101880.19;;;16.90;77.51
80184;BME280;69682;52.138;5.440;2023-08-24T01:46:12;101884.72;;;16.90;77.90
80184;BME280;69682;52.138;5.440;2023-08-24T01:48:42;101893.69;;;17.00;77.88
80184;BME280;69682;52.138;5.440;2023-08-24T01:51:10;101897.28;;;17.00;77.99
80184;BME280;69682;52.138;5.440;2023-08-24T01:53:38;101898.91;;;16.92;78.50
80184;BME280;69682;52.138;5.440;2023-08-24T01:56:12;101893.53;;;16.92;78.35
80184;BME280;69682;52.138;5.440;2023-08-24T01:58:39;101886.78;;;16.97;78.39
80184;BME280;69682;52.138;5.440;2023-08-24T02:01:07;101869.63;;;16.98;78.52
80184;BME280;69682;52.138;5.440;2023-08-24T02:03:35;101867.78;;;16.99;78.33
80184;BME280;69682;52.138;5.440;2023-08-24T02:06:02;101863.06;;;16.91;78.59
80184;BME280;69682;52.138;5.440;2023-08-24T02:08:29;101869.56;;;16.89;78.43
80184;BME280;69682;52.138;5.440;2023-08-24T02:10:56;101869.31;;;16.92;79.62
80184;BME280;69682;52.138;5.440;2023-08-24T02:13:23;101866.47;;;16.93;79.46
80184;BME280;69682;52.138;5.440;2023-08-24T02:15:49;101864.09;;;17.00;79.05
80184;BME280;69682;52.138;5.440;2023-08-24T02:18:16;101864.34;;;16.97;79.30
80184;BME280;69682;52.138;5.440;2023-08-24T02:20:42;101863.13;;;17.01;79.61
80184;BME280;69682;52.138;5.440;2023-08-24T02:23:09;101857.31;;;17.06;79.42
80184;BME280;69682;52.138;5.440;2023-08-24T02:25:41;101847.69;;;16.82;79.39
80184;BME280;69682;52.138;5.440;2023-08-24T02:28:08;101853.41;;;16.68;79.98
80184;BME280;69682;52.138;5.440;2023-08-24T02:30:37;101854.91;;;16.61;80.28
80184;BME280;69682;52.138;5.440;2023-08-24T02:33:05;101850.03;;;16.75;80.56
80184;BME280;69682;52.138;5.440;2023-08-24T02:35:31;101832.44;;;16.83;79.94
80184;BME280;69682;52.138;5.440;2023-08-24T02:37:58;101825.06;;;16.85;80.89
80184;BME280;69682;52.138;5.440;2023-08-24T02:40:25;101818.44;;;16.89;80.78
80184;BME280;69682;52.138;5.440;2023-08-24T02:42:51;101805.25;;;16.86;80.92
80184;BME280;69682;52.138;5.440;2023-08-24T02:45:18;101802.13;;;16.90;81.06
80184;BME280;69682;52.138;5.440;2023-08-24T02:47:44;101787.56;;;16.93;80.47
80184;BME280;69682;52.138;5.440;2023-08-24T02:50:11;101783.53;;;16.77;80.98
80184;BME280;69682;52.138;5.440;2023-08-24T02:52:38;101773.00;;;16.74;81.52
80184;BME280;69682;52.138;5.440;2023-08-24T02:55:05;101761.38;;;16.74;81.48
80184;BME280;69682;52.138;5.440;2023-08-24T02:57:32;101762.78;;;16.68;81.68
80184;BME280;69682;52.138;5.440;2023-08-24T03:00:00;101749.78;;;16.52;81.64
80184;BME280;69682;52.138;5.440;2023-08-24T03:02:27;101761.94;;;16.47;81.85
80184;BME280;69682;52.138;5.440;2023-08-24T03:04:53;101769.09;;;16.57;82.29
80184;BME280;69682;52.138;5.440;2023-08-24T03:07:21;101778.06;;;16.68;82.07
80184;BME280;69682;52.138;5.440;2023-08-24T03:09:48;101783.88;;;16.73;81.93
80184;BME280;69682;52.138;5.440;2023-08-24T03:12:15;101783.38;;;16.79;81.63
80184;BME280;69682;52.138;5.440;2023-08-24T03:14:41;101789.22;;;16.84;81.66
80184;BME280;69682;52.138;5.440;2023-08-24T03:17:08;101780.03;;;16.87;81.48
80184;BME280;69682;52.138;5.440;2023-08-24T03:19:34;101779.75;;;16.90;81.68
80184;BME280;69682;52.138;5.440;2023-08-24T03:22:01;101773.38;;;16.91;81.29
80184;BME280;69682;52.138;5.440;2023-08-24T03:24:27;101773.53;;;16.89;81.12
80184;BME280;69682;52.138;5.440;2023-08-24T03:26:54;101763.72;;;16.88;80.58
80184;BME280;69682;52.138;5.440;2023-08-24T03:29:20;101762.44;;;16.83;81.06
80184;BME280;69682;52.138;5.440;2023-08-24T03:31:47;101758.75;;;16.84;81.13
80184;BME280;69682;52.138;5.440;2023-08-24T03:34:14;101750.13;;;16.80;81.01
80184;BME280;69682;52.138;5.440;2023-08-24T03:36:40;101740.59;;;16.76;81.30
80184;BME280;69682;52.138;5.440;2023-08-24T03:39:07;101740.25;;;16.69;81.72
80184;BME280;69682;52.138;5.440;2023-08-24T03:41:33;101745.91;;;16.66;81.80
80184;BME280;69682;52.138;5.440;2023-08-24T03:44:00;101743.66;;;16.71;82.02
80184;BME280;69682;52.138;5.440;2023-08-24T03:46:27;101739.72;;;16.75;81.21
80184;BME280;69682;52.138;5.440;2023-08-24T03:48:54;101745.09;;;16.75;81.14
80184;BME280;69682;52.138;5.440;2023-08-24T03:51:20;101738.88;;;16.75;81.42
80184;BME280;69682;52.138;5.440;2023-08-24T03:53:47;101739.47;;;16.78;81.48
80184;BME280;69682;52.138;5.440;2023-08-24T03:56:14;101743.88;;;16.79;81.47
80184;BME280;69682;52.138;5.440;2023-08-24T03:58:40;101739.63;;;16.77;81.24
80184;BME280;69682;52.138;5.440;2023-08-24T04:01:10;101741.31;;;16.78;81.75
80184;BME280;69682;52.138;5.440;2023-08-24T04:03:37;101732.25;;;16.79;81.73
80184;BME280;69682;52.138;5.440;2023-08-24T04:06:04;101726.75;;;16.80;80.92
80184;BME280;69682;52.138;5.440;2023-08-24T04:08:32;101726.84;;;16.79;81.09
80184;BME280;69682;52.138;5.440;2023-08-24T04:10:58;101724.84;;;16.71;81.24
80184;BME280;69682;52.138;5.440;2023-08-24T04:13:26;101732.41;;;16.56;81.23
80184;BME280;69682;52.138;5.440;2023-08-24T04:15:53;101740.47;;;16.56;81.48
80184;BME280;69682;52.138;5.440;2023-08-24T04:18:19;101741.78;;;16.62;81.50
80184;BME280;69682;52.138;5.440;2023-08-24T04:20:46;101737.09;;;16.64;81.12
80184;BME280;69682;52.138;5.440;2023-08-24T04:23:13;101738.69;;;16.67;81.18
80184;BME280;69682;52.138;5.440;2023-08-24T04:25:40;101736.00;;;16.67;80.99
80184;BME280;69682;52.138;5.440;2023-08-24T04:28:07;101739.41;;;16.69;81.02
80184;BME280;69682;52.138;5.440;2023-08-24T04:30:33;101741.38;;;16.67;81.30
80184;BME280;69682;52.138;5.440;2023-08-24T04:33:00;101747.59;;;16.67;81.48
80184;BME280;69682;52.138;5.440;2023-08-24T04:35:27;101751.28;;;16.66;81.13
80184;BME280;69682;52.138;5.440;2023-08-24T04:37:54;101749.59;;;16.65;80.78
80184;BME280;69682;52.138;5.440;2023-08-24T04:40:21;101749.72;;;16.64;80.61
80184;BME280;69682;52.138;5.440;2023-08-24T04:42:48;101756.09;;;16.63;80.83
80184;BME280;69682;52.138;5.440;2023-08-24T04:45:17;101745.19;;;16.64;81.09
80184;BME280;69682;52.138;5.440;2023-08-24T04:47:45;101747.03;;;16.64;80.98
80184;BME280;69682;52.138;5.440;2023-08-24T04:50:11;101741.78;;;16.62;80.95
80184;BME280;69682;52.138;5.440;2023-08-24T04:52:38;101743.75;;;16.60;80.97
80184;BME280;69682;52.138;5.440;2023-08-24T04:55:05;101740.47;;;16.56;80.72
80184;BME280;69682;52.138;5.440;2023-08-24T04:57:31;101737.06;;;16.54;81.00
80184;BME280;69682;52.138;5.440;2023-08-24T04:59:58;101730.84;;;16.54;80.96
80184;BME280;69682;52.138;5.440;2023-08-24T05:02:25;101738.66;;;16.57;80.93
80184;BME280;69682;52.138;5.440;2023-08-24T05:04:51;101740.22;;;16.60;80.91
80184;BME280;69682;52.138;5.440;2023-08-24T05:07:18;101736.69;;;16.59;81.24
80184;BME280;69682;52.138;5.440;2023-08-24T05:09:44;101738.38;;;16.60;80.96
80184;BME280;69682;52.138;5.440;2023-08-24T05:12:11;101737.53;;;16.60;81.32
80184;BME280;69682;52.138;5.440;2023-08-24T05:14:38;101734.00;;;16.59;81.33
80184;BME280;69682;52.138;5.440;2023-08-24T05:17:04;101740.59;;;16.55;81.39
80184;BME280;69682;52.138;5.440;2023-08-24T05:19:31;101735.09;;;16.56;81.40
80184;BME280;69682;52.138;5.440;2023-08-24T05:21:57;101734.09;;;16.57;81.57
80184;BME280;69682;52.138;5.440;2023-08-24T05:24:24;101731.28;;;16.59;81.46
80184;BME280;69682;52.138;5.440;2023-08-24T05:26:51;101724.91;;;16.60;81.81
80184;BME280;69682;52.138;5.440;2023-08-24T05:29:17;101719.38;;;16.62;81.70
80184;BME280;69682;52.138;5.440;2023-08-24T05:31:44;101716.84;;;16.60;81.84
80184;BME280;69682;52.138;5.440;2023-08-24T05:34:10;101705.94;;;16.62;81.58
80184;BME280;69682;52.138;5.440;2023-08-24T05:36:37;101703.66;;;16.57;81.77
80184;BME280;69682;52.138;5.440;2023-08-24T05:39:03;101698.41;;;16.55;82.44
80184;BME280;69682;52.138;5.440;2023-08-24T05:41:32;101692.44;;;16.52;82.65
80184;BME280;69682;52.138;5.440;2023-08-24T05:43:59;101697.53;;;16.45;82.98
80184;BME280;69682;52.138;5.440;2023-08-24T05:46:26;101700.06;;;16.47;83.25
80184;BME280;69682;52.138;5.440;2023-08-24T05:48:52;101697.97;;;16.50;83.74
80184;BME280;69682;52.138;5.440;2023-08-24T05:51:19;101691.34;;;16.54;83.36
80184;BME280;69682;52.138;5.440;2023-08-24T05:53:46;101692.75;;;16.58;83.46
80184;BME280;69682;52.138;5.440;2023-08-24T05:56:12;101681.72;;;16.62;83.70
80184;BME280;69682;52.138;5.440;2023-08-24T05:58:39;101678.91;;;16.63;83.39
80184;BME280;69682;52.138;5.440;2023-08-24T06:01:05;101680.47;;;16.66;83.68
80184;BME280;69682;52.138;5.440;2023-08-24T06:03:33;101678.50;;;16.68;83.65
80184;BME280;69682;52.138;5.440;2023-08-24T06:06:01;101681.22;;;16.68;83.52
80184;BME280;69682;52.138;5.440;2023-08-24T06:08:29;101681.50;;;16.74;83.70
80184;BME280;69682;52.138;5.440;2023-08-24T06:10:56;101671.47;;;16.76;83.68
80184;BME280;69682;52.138;5.440;2023-08-24T06:13:23;101666.69;;;16.80;83.68
80184;BME280;69682;52.138;5.440;2023-08-24T06:15:50;101667.25;;;16.84;83.76
80184;BME280;69682;52.138;5.440;2023-08-24T06:18:17;101654.38;;;16.87;84.07
80184;BME280;69682;52.138;5.440;2023-08-24T06:20:44;101647.47;;;16.94;84.16
80184;BME280;69682;52.138;5.440;2023-08-24T06:23:12;101655.09;;;16.99;84.08
80184;BME280;69682;52.138;5.440;2023-08-24T06:25:43;101645.78;;;17.03;84.08
80184;BME280;69682;52.138;5.440;2023-08-24T06:28:10;101656.84;;;17.10;83.62
80184;BME280;69682;52.138;5.440;2023-08-24T06:30:41;101646.34;;;17.16;83.63
80184;BME280;69682;52.138;5.440;2023-08-24T06:33:09;101635.16;;;17.21;83.39
80184;BME280;69682;52.138;5.440;2023-08-24T06:35:37;101630.91;;;17.28;83.78
80184;BME280;69682;52.138;5.440;2023-08-24T06:38:04;101630.34;;;17.34;83.39
80184;BME280;69682;52.138;5.440;2023-08-24T06:40:30;101637.28;;;17.37;82.78
80184;BME280;69682;52.138;5.440;2023-08-24T06:42:57;101632.47;;;17.40;82.64
80184;BME280;69682;52.138;5.440;2023-08-24T06:45:24;101628.50;;;17.44;82.67
80184;BME280;69682;52.138;5.440;2023-08-24T06:47:50;101626.38;;;17.48;82.89
80184;BME280;69682;52.138;5.440;2023-08-24T06:50:19;101623.38;;;17.51;83.08
80184;BME280;69682;52.138;5.440;2023-08-24T06:52:46;101618.44;;;17.56;83.04
80184;BME280;69682;52.138;5.440;2023-08-24T06:55:12;101612.47;;;17.62;82.92
80184;BME280;69682;52.138;5.440;2023-08-24T06:57:39;101603.78;;;17.68;82.80
80184;BME280;69682;52.138;5.440;2023-08-24T07:00:07;101600.53;;;17.75;82.70
80184;BME280;69682;52.138;5.440;2023-08-24T07:02:36;101594.72;;;17.79;82.09
80184;BME280;69682;52.138;5.440;2023-08-24T07:05:03;101611.84;;;17.88;82.11
80184;BME280;69682;52.138;5.440;2023-08-24T07:07:35;101617.38;;;17.96;82.22
80184;BME280;69682;52.138;5.440;2023-08-24T07:10:02;101605.88;;;18.04;82.31
80184;BME280;69682;52.138;5.440;2023-08-24T07:12:30;101613.78;;;18.15;82.07
80184;BME280;69682;52.138;5.440;2023-08-24T07:14:57;101609.06;;;18.17;82.02
80184;BME280;69682;52.138;5.440;2023-08-24T07:17:23;101607.63;;;18.23;82.00
80184;BME280;69682;52.138;5.440;2023-08-24T07:19:51;101601.81;;;18.27;82.08
80184;BME280;69682;52.138;5.440;2023-08-24T07:22:17;101598.66;;;18.32;82.33
80184;BME280;69682;52.138;5.440;2023-08-24T07:24:44;101592.50;;;18.39;81.59
80184;BME280;69682;52.138;5.440;2023-08-24T07:27:12;101601.03;;;18.45;80.64
80184;BME280;69682;52.138;5.440;2023-08-24T07:29:38;101605.50;;;18.54;80.63
80184;BME280;69682;52.138;5.440;2023-08-24T07:32:05;101603.47;;;18.66;81.46
80184;BME280;69682;52.138;5.440;2023-08-24T07:34:32;101602.16;;;18.70;81.39
80184;BME280;69682;52.138;5.440;2023-08-24T07:36:59;101599.88;;;18.75;80.58
80184;BME280;69682;52.138;5.440;2023-08-24T07:39:25;101595.41;;;18.83;80.32
80184;BME280;69682;52.138;5.440;2023-08-24T07:41:52;101600.22;;;18.90;80.08
80184;BME280;69682;52.138;5.440;2023-08-24T07:44:19;101594.38;;;18.94;79.85
80184;BME280;69682;52.138;5.440;2023-08-24T07:46:47;101593.75;;;19.00;80.40
80184;BME280;69682;52.138;5.440;2023-08-24T07:49:13;101601.38;;;19.05;80.24
80184;BME280;69682;52.138;5.440;2023-08-24T07:51:40;101599.91;;;19.11;80.18
80184;BME280;69682;52.138;5.440;2023-08-24T07:54:09;101592.41;;;19.22;80.00
80184;BME280;69682;52.138;5.440;2023-08-24T07:56:36;101591.09;;;19.26;79.16
80184;BME280;69682;52.138;5.440;2023-08-24T07:59:02;101591.88;;;19.37;79.11
80184;BME280;69682;52.138;5.440;2023-08-24T08:01:29;101606.44;;;19.44;79.11
80184;BME280;69682;52.138;5.440;2023-08-24T08:03:57;101611.41;;;19.48;79.22
80184;BME280;69682;52.138;5.440;2023-08-24T08:06:24;101602.81;;;19.53;79.24
80184;BME280;69682;52.138;5.440;2023-08-24T08:08:53;101605.25;;;19.64;78.67
80184;BME280;69682;52.138;5.440;2023-08-24T08:11:20;101598.34;;;19.88;77.49
80184;BME280;69682;52.138;5.440;2023-08-24T08:13:47;101607.03;;;19.91;77.81
80184;BME280;69682;52.138;5.440;2023-08-24T08:16:15;101595.13;;;20.10;76.98
80184;BME280;69682;52.138;5.440;2023-08-24T08:18:41;101587.75;;;20.29;75.34
80184;BME280;69682;52.138;5.440;2023-08-24T08:21:09;101576.81;;;20.38;75.44
80184;BME280;69682;52.138;5.440;2023-08-24T08:23:37;101572.59;;;20.44;74.29
80184;BME280;69682;52.138;5.440;2023-08-24T08:26:04;101566.00;;;20.47;74.40
80184;BME280;69682;52.138;5.440;2023-08-24T08:28:30;101562.81;;;20.51;73.48
80184;BME280;69682;52.138;5.440;2023-08-24T08:31:00;101568.44;;;20.58;73.34
80184;BME280;69682;52.138;5.440;2023-08-24T08:33:27;101570.88;;;20.77;72.92
80184;BME280;69682;52.138;5.440;2023-08-24T08:35:53;101568.34;;;20.84;71.62
80184;BME280;69682;52.138;5.440;2023-08-24T08:38:20;101560.38;;;20.91;72.10
80184;BME280;69682;52.138;5.440;2023-08-24T08:41:03;101557.53;;;20.92;71.76
80184;BME280;69682;52.138;5.440;2023-08-24T08:43:30;101560.75;;;20.96;71.76
80184;BME280;69682;52.138;5.440;2023-08-24T08:45:58;101544.84;;;21.01;72.50
80184;BME280;69682;52.138;5.440;2023-08-24T08:48:24;101532.81;;;21.03;72.85
80184;BME280;69682;52.138;5.440;2023-08-24T08:50:52;101538.41;;;21.10;72.07
80184;BME280;69682;52.138;5.440;2023-08-24T08:53:23;101536.91;;;21.24;70.97
80184;BME280;69682;52.138;5.440;2023-08-24T08:55:51;101531.28;;;21.33;70.65
80184;BME280;69682;52.138;5.440;2023-08-24T08:58:20;101518.75;;;21.41;71.39
80184;BME280;69682;52.138;5.440;2023-08-24T09:00:48;101517.06;;;21.48;71.04
80184;BME280;69682;52.138;5.440;2023-08-24T09:03:17;101514.16;;;21.58;70.18
80184;BME280;69682;52.138;5.440;2023-08-24T09:05:45;101512.97;;;21.68;71.36
80184;BME280;69682;52.138;5.440;2023-08-24T09:08:16;101499.03;;;21.80;69.14
80184;BME280;69682;52.138;5.440;2023-08-24T09:10:43;101503.09;;;21.84;69.42
80184;BME280;69682;52.138;5.440;2023-08-24T09:13:10;101506.97;;;21.89;69.32
80184;BME280;69682;52.138;5.440;2023-08-24T09:15:37;101508.63;;;21.98;68.76
80184;BME280;69682;52.138;5.440;2023-08-24T09:18:05;101503.81;;;22.09;67.49
80184;BME280;69682;52.138;5.440;2023-08-24T09:20:33;101498.53;;;22.23;67.57
80184;BME280;69682;52.138;5.440;2023-08-24T09:23:00;101493.53;;;22.35;68.01
80184;BME280;69682;52.138;5.440;2023-08-24T09:25:27;101484.34;;;22.44;67.92
80184;BME280;69682;52.138;5.440;2023-08-24T09:28:01;101473.78;;;22.50;68.33
80184;BME280;69682;52.138;5.440;2023-08-24T09:30:37;101464.84;;;22.64;66.78
80184;BME280;69682;52.138;5.440;2023-08-24T09:33:09;101466.72;;;22.86;66.55
80184;BME280;69682;52.138;5.440;2023-08-24T09:35:37;101469.69;;;23.00;64.07
80184;BME280;69682;52.138;5.440;2023-08-24T09:38:19;101459.41;;;23.10;64.09
80184;BME280;69682;52.138;5.440;2023-08-24T09:40:46;101460.66;;;23.22;63.42
80184;BME280;69682;52.138;5.440;2023-08-24T09:43:17;101461.78;;;23.28;63.01
80184;BME280;69682;52.138;5.440;2023-08-24T09:45:56;101454.38;;;23.37;64.16
80184;BME280;69682;52.138;5.440;2023-08-24T09:48:23;101458.41;;;23.41;65.28
80184;BME280;69682;52.138;5.440;2023-08-24T09:50:56;101460.59;;;23.45;64.46
80184;BME280;69682;52.138;5.440;2023-08-24T09:53:23;101461.34;;;23.54;63.65
80184;BME280;69682;52.138;5.440;2023-08-24T09:56:00;101452.06;;;23.63;64.41
80184;BME280;69682;52.138;5.440;2023-08-24T09:58:28;101454.03;;;23.69;64.15
80184;BME280;69682;52.138;5.440;2023-08-24T10:00:56;101456.41;;;23.72;65.31
80184;BME280;69682;52.138;5.440;2023-08-24T10:03:26;101458.72;;;23.75;63.44
80184;BME280;69682;52.138;5.440;2023-08-24T10:05:55;101452.63;;;23.73;63.06
80184;BME280;69682;52.138;5.440;2023-08-24T10:08:36;101461.28;;;23.77;64.87
80184;BME280;69682;52.138;5.440;2023-08-24T10:11:07;101462.97;;;23.78;62.83
80184;BME280;69682;52.138;5.440;2023-08-24T10:13:39;101463.72;;;23.72;63.02
80184;BME280;69682;52.138;5.440;2023-08-24T10:16:08;101464.06;;;23.69;63.26
80184;BME280;69682;52.138;5.440;2023-08-24T10:18:36;101461.72;;;23.66;63.23
80184;BME280;69682;52.138;5.440;2023-08-24T10:21:04;101455.63;;;23.64;64.11
80184;BME280;69682;52.138;5.440;2023-08-24T10:23:31;101448.50;;;23.63;64.27
80184;BME280;69682;52.138;5.440;2023-08-24T10:25:59;101442.75;;;23.57;64.23
80184;BME280;69682;52.138;5.440;2023-08-24T10:28:29;101440.81;;;23.51;64.51
80184;BME280;69682;52.138;5.440;2023-08-24T10:30:58;101450.63;;;23.52;64.62
80184;BME280;69682;52.138;5.440;2023-08-24T10:33:26;101446.41;;;23.50;65.47
80184;BME280;69682;52.138;5.440;2023-08-24T10:35:53;101450.75;;;23.44;64.86
80184;BME280;69682;52.138;5.440;2023-08-24T10:38:28;101440.59;;;23.38;65.88
80184;BME280;69682;52.138;5.440;2023-08-24T10:41:02;101442.00;;;23.34;65.90
80184;BME280;69682;52.138;5.440;2023-08-24T10:43:36;101442.38;;;23.31;66.88
80184;BME280;69682;52.138;5.440;2023-08-24T10:46:04;101442.56;;;23.29;68.11
80184;BME280;69682;52.138;5.440;2023-08-24T10:53:40;101464.44;;;23.36;70.60
80184;BME280;69682;52.138;5.440;2023-08-24T10:56:15;101453.34;;;23.38;70.28
80184;BME280;69682;52.138;5.440;2023-08-24T10:58:43;101448.28;;;23.34;70.38
80184;BME280;69682;52.138;5.440;2023-08-24T11:01:17;101442.47;;;23.38;70.84
80184;BME280;69682;52.138;5.440;2023-08-24T11:03:56;101441.47;;;23.39;71.64
80184;BME280;69682;52.138;5.440;2023-08-24T11:06:25;101438.91;;;23.37;72.41
80184;BME280;69682;52.138;5.440;2023-08-24T11:09:09;101433.09;;;23.40;71.47
80184;BME280;69682;52.138;5.440;2023-08-24T11:11:40;101432.63;;;23.37;72.26
80184;BME280;69682;52.138;5.440;2023-08-24T11:14:15;101433.09;;;23.40;71.97
80184;BME280;69682;52.138;5.440;2023-08-24T11:16:46;101437.88;;;23.38;72.65
80184;BME280;69682;52.138;5.440;2023-08-24T11:19:13;101439.97;;;23.36;72.31
80184;BME280;69682;52.138;5.440;2023-08-24T11:21:41;101429.72;;;23.38;71.65
80184;BME280;69682;52.138;5.440;2023-08-24T11:24:15;101421.56;;;23.38;71.84
80184;BME280;69682;52.138;5.440;2023-08-24T11:26:43;101422.44;;;23.39;72.06
80184;BME280;69682;52.138;5.440;2023-08-24T11:29:10;101414.28;;;23.39;71.44
80184;BME280;69682;52.138;5.440;2023-08-24T11:31:37;101405.63;;;23.35;71.39
80184;BME280;69682;52.138;5.440;2023-08-24T11:34:08;101397.28;;;23.37;70.46
80184;BME280;69682;52.138;5.440;2023-08-24T11:36:45;101387.81;;;23.32;70.45
80184;BME280;69682;52.138;5.440;2023-08-24T11:39:17;101387.16;;;23.30;70.37
80184;BME280;69682;52.138;5.440;2023-08-24T11:44:25;101377.13;;;23.31;70.23
80184;BME280;69682;52.138;5.440;2023-08-24T11:46:58;101375.91;;;23.33;71.46
80184;BME280;69682;52.138;5.440;2023-08-24T11:49:26;101372.16;;;23.34;70.61
80184;BME280;69682;52.138;5.440;2023-08-24T11:51:52;101362.59;;;23.39;71.23
80184;BME280;69682;52.138;5.440;2023-08-24T11:54:19;101362.47;;;23.47;72.02
80184;BME280;69682;52.138;5.440;2023-08-24T11:56:46;101353.94;;;23.50;71.78
80184;BME280;69682;52.138;5.440;2023-08-24T11:59:14;101353.00;;;23.57;72.66
80184;BME280;69682;52.138;5.440;2023-08-24T12:01:41;101355.16;;;23.62;71.35
80184;BME280;69682;52.138;5.440;2023-08-24T12:04:09;101348.22;;;23.74;71.68
80184;BME280;69682;52.138;5.440;2023-08-24T12:06:35;101358.78;;;23.84;72.14
80184;BME280;69682;52.138;5.440;2023-08-24T12:09:05;101347.72;;;23.86;68.46
80184;BME280;69682;52.138;5.440;2023-08-24T12:11:38;101351.09;;;23.88;69.07
80184;BME280;69682;52.138;5.440;2023-08-24T12:14:06;101353.75;;;24.02;69.07
80184;BME280;69682;52.138;5.440;2023-08-24T12:16:36;101348.06;;;24.19;70.00
80184;BME280;69682;52.138;5.440;2023-08-24T12:19:06;101350.69;;;24.27;68.67
80184;BME280;69682;52.138;5.440;2023-08-24T12:21:33;101344.19;;;24.50;67.42
80184;BME280;69682;52.138;5.440;2023-08-24T12:24:03;101338.66;;;24.64;66.21
80184;BME280;69682;52.138;5.440;2023-08-24T12:26:35;101326.97;;;24.70;68.13
80184;BME280;69682;52.138;5.440;2023-08-24T12:29:07;101325.16;;;24.78;66.42
80184;BME280;69682;52.138;5.440;2023-08-24T12:31:35;101313.69;;;24.61;63.78
80184;BME280;69682;52.138;5.440;2023-08-24T12:34:06;101307.22;;;24.40;65.16
80184;BME280;69682;52.138;5.440;2023-08-24T12:36:36;101308.72;;;24.43;65.93
80184;BME280;69682;52.138;5.440;2023-08-24T12:39:07;101309.63;;;24.50;65.62
80184;BME280;69682;52.138;5.440;2023-08-24T12:41:37;101297.97;;;24.56;65.69
80184;BME280;69682;52.138;5.440;2023-08-24T12:44:04;101288.91;;;24.56;65.69
80184;BME280;69682;52.138;5.440;2023-08-24T12:46:37;101281.41;;;24.58;66.24
80184;BME280;69682;52.138;5.440;2023-08-24T12:49:04;101266.50;;;24.54;64.76
80184;BME280;69682;52.138;5.440;2023-08-24T12:51:30;101251.13;;;24.46;64.67
80184;BME280;69682;52.138;5.440;2023-08-24T12:53:57;101254.25;;;24.43;64.82
80184;BME280;69682;52.138;5.440;2023-08-24T12:56:24;101257.81;;;24.43;65.51
80184;BME280;69682;52.138;5.440;2023-08-24T12:58:50;101251.38;;;24.51;66.39
80184;BME280;69682;52.138;5.440;2023-08-24T13:01:17;101238.84;;;24.57;66.10
80184;BME280;69682;52.138;5.440;2023-08-24T13:03:43;101230.06;;;24.61;65.97
80184;BME280;69682;52.138;5.440;2023-08-24T13:06:10;101228.72;;;24.79;65.85
80184;BME280;69682;52.138;5.440;2023-08-24T13:08:50;101228.38;;;24.88;64.65